sensor_id;sensor_type;location;lat;lon;timestamp;pressure;altitude;pressure_sealevel;temperature;humidity
30708;BME280;17458;48.958;8.284;2023-01-19T00:00:21;99369.63;;;3.89;63.98
30708;BME280;17458;48.958;8.284;2023-01-19T00:03:05;99371.06;;;3.99;63.59
30708;BME280;17458;48.958;8.284;2023-01-19T00:06:06;99378.34;;;4.18;62.72
30708;BME280;17458;48.958;8.284;2023-01-19T00:08:49;99379.50;;;4.23;62.88
30708;BME280;17458;48.958;8.284;2023-01-19T00:11:33;99376.53;;;4.17;62.74
30708;BME280;17458;48.958;8.284;2023-01-19T00:14:18;99379.59;;;4.24;63.22
30708;BME280;17458;48.958;8.284;2023-01-19T00:17:02;99387.13;;;4.18;63.44
30708;BME280;17458;48.958;8.284;2023-01-19T00:19:45;99390.81;;;4.22;62.79
30708;BME280;17458;48.958;8.284;2023-01-19T00:22:29;99378.50;;;4.36;62.37
30708;BME280;17458;48.958;8.284;2023-01-19T00:25:13;99386.47;;;4.22;62.58
30708;BME280;17458;48.958;8.284;2023-01-19T00:27:57;99389.47;;;4.14;63.06
30708;BME280;17458;48.958;8.284;2023-01-19T00:30:42;99387.38;;;4.23;63.14
30708;BME280;17458;48.958;8.284;2023-01-19T00:33:26;99386.75;;;3.98;63.12
30708;BME280;17458;48.958;8.284;2023-01-19T00:36:10;99399.34;;;4.03;63.60
30708;BME280;17458;48.958;8.284;2023-01-19T00:38:54;99404.69;;;4.05;64.06
30708;BME280;17458;48.958;8.284;2023-01-19T00:41:38;99404.72;;;3.62;64.94
30708;BME280;17458;48.958;8.284;2023-01-19T00:44:41;99405.56;;;3.76;64.26
30708;BME280;17458;48.958;8.284;2023-01-19T00:47:25;99400.78;;;3.98;64.20
30708;BME280;17458;48.958;8.284;2023-01-19T00:50:10;99398.16;;;3.98;64.68
30708;BME280;17458;48.958;8.284;2023-01-19T00:52:56;99400.44;;;3.92;64.21
30708;BME280;17458;48.958;8.284;2023-01-19T00:55:40;99404.69;;;4.05;64.11
30708;BME280;17458;48.958;8.284;2023-01-19T00:58:24;99412.22;;;4.13;63.05
30708;BME280;17458;48.958;8.284;2023-01-19T01:01:08;99410.56;;;3.86;63.31
30708;BME280;17458;48.958;8.284;2023-01-19T01:03:52;99404.69;;;4.05;63.40
30708;BME280;17458;48.958;8.284;2023-01-19T01:06:36;99408.59;;;4.11;63.12
30708;BME280;17458;48.958;8.284;2023-01-19T01:09:20;99412.28;;;4.00;64.13
30708;BME280;17458;48.958;8.284;2023-01-19T01:12:04;99401.41;;;4.09;63.61
30708;BME280;17458;48.958;8.284;2023-01-19T01:14:48;99408.13;;;4.04;62.70
30708;BME280;17458;48.958;8.284;2023-01-19T01:17:32;99412.72;;;4.08;63.51
30708;BME280;17458;48.958;8.284;2023-01-19T01:20:18;99414.03;;;4.14;63.36
30708;BME280;17458;48.958;8.284;2023-01-19T01:23:03;99418.63;;;3.89;63.60
30708;BME280;17458;48.958;8.284;2023-01-19T01:25:47;99424.41;;;3.83;63.71
30708;BME280;17458;48.958;8.284;2023-01-19T01:28:30;99423.53;;;4.12;62.85
30708;BME280;17458;48.958;8.284;2023-01-19T01:31:15;99420.00;;;4.12;63.17
30708;BME280;17458;48.958;8.284;2023-01-19T01:33:58;99425.81;;;4.21;62.97
30708;BME280;17458;48.958;8.284;2023-01-19T01:36:42;99431.59;;;4.15;63.73
30708;BME280;17458;48.958;8.284;2023-01-19T01:39:27;99435.97;;;3.72;63.60
30708;BME280;17458;48.958;8.284;2023-01-19T01:42:17;99431.19;;;3.95;63.70
30708;BME280;17458;48.958;8.284;2023-01-19T01:45:14;99436.16;;;4.18;64.00
30708;BME280;17458;48.958;8.284;2023-01-19T01:48:12;99427.25;;;4.01;64.36
30708;BME280;17458;48.958;8.284;2023-01-19T01:51:03;99426.31;;;3.58;65.22
30708;BME280;17458;48.958;8.284;2023-01-19T01:56:52;99440.38;;;4.01;64.47
30708;BME280;17458;48.958;8.284;2023-01-19T01:59:44;99436.06;;;4.46;62.88
30708;BME280;17458;48.958;8.284;2023-01-19T02:02:31;99436.69;;;4.56;62.41
30708;BME280;17458;48.958;8.284;2023-01-19T02:05:34;99432.16;;;4.39;62.15
30708;BME280;17458;48.958;8.284;2023-01-19T02:08:25;99419.72;;;4.37;63.01
30708;BME280;17458;48.958;8.284;2023-01-19T02:11:31;99431.91;;;4.35;62.61
30708;BME280;17458;48.958;8.284;2023-01-19T02:14:34;99436.31;;;4.36;62.66
30708;BME280;17458;48.958;8.284;2023-01-19T02:17:21;99433.06;;;4.54;61.73
30708;BME280;17458;48.958;8.284;2023-01-19T02:20:06;99432.50;;;4.60;61.98
30708;BME280;17458;48.958;8.284;2023-01-19T02:22:54;99439.41;;;4.58;62.21
30708;BME280;17458;48.958;8.284;2023-01-19T02:25:40;99424.06;;;4.51;61.87
30708;BME280;17458;48.958;8.284;2023-01-19T02:28:25;99419.63;;;3.91;63.45
30708;BME280;17458;48.958;8.284;2023-01-19T02:31:10;99423.69;;;3.86;63.57
30708;BME280;17458;48.958;8.284;2023-01-19T02:33:56;99427.31;;;3.88;64.96
30708;BME280;17458;48.958;8.284;2023-01-19T02:37:33;99430.41;;;3.68;64.78
30708;BME280;17458;48.958;8.284;2023-01-19T02:39:55;99428.25;;;4.03;63.69
30708;BME280;17458;48.958;8.284;2023-01-19T02:42:50;99422.28;;;3.63;64.87
30708;BME280;17458;48.958;8.284;2023-01-19T02:45:36;99424.53;;;4.00;64.67
30708;BME280;17458;48.958;8.284;2023-01-19T02:48:21;99429.50;;;3.67;65.45
30708;BME280;17458;48.958;8.284;2023-01-19T02:51:13;99430.63;;;3.71;66.10
30708;BME280;17458;48.958;8.284;2023-01-19T02:57:24;99438.66;;;3.59;65.42
30708;BME280;17458;48.958;8.284;2023-01-19T03:06:45;99421.88;;;4.00;64.05
30708;BME280;17458;48.958;8.284;2023-01-19T03:09:45;99413.44;;;3.76;65.11
30708;BME280;17458;48.958;8.284;2023-01-19T03:12:44;99423.72;;;4.15;65.21
30708;BME280;17458;48.958;8.284;2023-01-19T03:15:42;99418.84;;;3.64;64.81
30708;BME280;17458;48.958;8.284;2023-01-19T03:18:30;99413.16;;;3.43;65.97
30708;BME280;17458;48.958;8.284;2023-01-19T03:21:16;99422.47;;;3.25;65.98
30708;BME280;17458;48.958;8.284;2023-01-19T03:24:05;99424.41;;;3.83;66.30
30708;BME280;17458;48.958;8.284;2023-01-19T03:26:55;99412.09;;;3.54;66.46
30708;BME280;17458;48.958;8.284;2023-01-19T03:29:47;99415.72;;;3.56;65.27
30708;BME280;17458;48.958;8.284;2023-01-19T03:32:38;99407.91;;;3.71;66.28
30708;BME280;17458;48.958;8.284;2023-01-19T03:35:28;99420.13;;;3.43;66.35
30708;BME280;17458;48.958;8.284;2023-01-19T03:38:15;99416.72;;;3.31;66.16
30708;BME280;17458;48.958;8.284;2023-01-19T03:41:04;99420.41;;;3.47;66.59
30708;BME280;17458;48.958;8.284;2023-01-19T03:43:50;99422.88;;;3.31;66.35
30708;BME280;17458;48.958;8.284;2023-01-19T03:46:37;99416.38;;;3.67;66.27
30708;BME280;17458;48.958;8.284;2023-01-19T03:49:21;99428.94;;;3.30;66.17
30708;BME280;17458;48.958;8.284;2023-01-19T03:52:05;99430.47;;;3.13;66.77
30708;BME280;17458;48.958;8.284;2023-01-19T03:54:49;99431.00;;;3.49;65.35
30708;BME280;17458;48.958;8.284;2023-01-19T03:57:33;99433.44;;;3.74;65.15
30708;BME280;17458;48.958;8.284;2023-01-19T04:00:17;99440.91;;;3.40;65.60
30708;BME280;17458;48.958;8.284;2023-01-19T04:03:03;99442.53;;;3.38;65.79
30708;BME280;17458;48.958;8.284;2023-01-19T04:05:47;99442.69;;;3.54;65.61
30708;BME280;17458;48.958;8.284;2023-01-19T04:08:31;99451.78;;;3.18;66.51
30708;BME280;17458;48.958;8.284;2023-01-19T04:11:15;99450.81;;;3.44;65.63
30708;BME280;17458;48.958;8.284;2023-01-19T04:13:59;99453.19;;;3.54;65.25
30708;BME280;17458;48.958;8.284;2023-01-19T04:16:44;99450.41;;;3.38;65.38
30708;BME280;17458;48.958;8.284;2023-01-19T04:19:28;99449.66;;;3.81;64.45
30708;BME280;17458;48.958;8.284;2023-01-19T04:22:12;99456.28;;;3.34;65.43
30708;BME280;17458;48.958;8.284;2023-01-19T04:24:55;99465.34;;;3.67;64.97
30708;BME280;17458;48.958;8.284;2023-01-19T04:27:39;99459.59;;;3.72;64.58
30708;BME280;17458;48.958;8.284;2023-01-19T04:30:23;99445.34;;;3.69;64.78
30708;BME280;17458;48.958;8.284;2023-01-19T04:33:07;99452.75;;;3.89;64.38
30708;BME280;17458;48.958;8.284;2023-01-19T04:35:52;99455.75;;;3.67;64.28
30708;BME280;17458;48.958;8.284;2023-01-19T04:38:36;99460.59;;;3.46;65.07
30708;BME280;17458;48.958;8.284;2023-01-19T04:41:20;99455.59;;;3.23;66.15
30708;BME280;17458;48.958;8.284;2023-01-19T04:44:03;99460.34;;;3.15;66.09
30708;BME280;17458;48.958;8.284;2023-01-19T04:46:48;99469.22;;;3.31;66.67
30708;BME280;17458;48.958;8.284;2023-01-19T04:49:34;99479.16;;;3.49;65.28
30708;BME280;17458;48.958;8.284;2023-01-19T04:52:20;99481.22;;;3.14;66.41
30708;BME280;17458;48.958;8.284;2023-01-19T04:55:05;99480.91;;;3.36;66.00
30708;BME280;17458;48.958;8.284;2023-01-19T04:57:49;99487.31;;;3.54;65.29
30708;BME280;17458;48.958;8.284;2023-01-19T05:00:33;99477.06;;;3.31;66.10
30708;BME280;17458;48.958;8.284;2023-01-19T05:03:17;99487.13;;;3.38;66.55
30708;BME280;17458;48.958;8.284;2023-01-19T05:06:02;99481.28;;;3.42;66.31
30708;BME280;17458;48.958;8.284;2023-01-19T05:08:46;99481.94;;;3.11;67.21
30708;BME280;17458;48.958;8.284;2023-01-19T05:11:30;99486.34;;;3.26;66.71
30708;BME280;17458;48.958;8.284;2023-01-19T05:14:14;99489.91;;;3.13;67.04
30708;BME280;17458;48.958;8.284;2023-01-19T05:16:58;99490.13;;;3.16;67.42
30708;BME280;17458;48.958;8.284;2023-01-19T05:19:43;99488.41;;;3.03;68.17
30708;BME280;17458;48.958;8.284;2023-01-19T05:22:27;99490.63;;;2.97;67.73
30708;BME280;17458;48.958;8.284;2023-01-19T05:25:11;99484.03;;;3.30;67.60
30708;BME280;17458;48.958;8.284;2023-01-19T05:27:55;99490.91;;;3.15;67.20
30708;BME280;17458;48.958;8.284;2023-01-19T05:30:39;99490.19;;;3.31;66.67
30708;BME280;17458;48.958;8.284;2023-01-19T05:33:23;99491.63;;;3.12;67.43
30708;BME280;17458;48.958;8.284;2023-01-19T05:36:08;99483.38;;;3.06;67.71
30708;BME280;17458;48.958;8.284;2023-01-19T05:38:53;99490.59;;;3.10;67.26
30708;BME280;17458;48.958;8.284;2023-01-19T05:41:37;99483.63;;;3.65;66.79
30708;BME280;17458;48.958;8.284;2023-01-19T05:44:21;99487.16;;;3.25;66.76
30708;BME280;17458;48.958;8.284;2023-01-19T05:47:05;99488.00;;;2.97;67.72
30708;BME280;17458;48.958;8.284;2023-01-19T05:49:49;99487.69;;;3.32;67.53
30708;BME280;17458;48.958;8.284;2023-01-19T05:52:33;99488.59;;;3.33;67.60
30708;BME280;17458;48.958;8.284;2023-01-19T05:55:18;99478.03;;;3.59;68.00
30708;BME280;17458;48.958;8.284;2023-01-19T05:58:03;99495.88;;;2.97;67.79
30708;BME280;17458;48.958;8.284;2023-01-19T06:00:47;99495.69;;;3.07;68.01
30708;BME280;17458;48.958;8.284;2023-01-19T06:03:32;99510.53;;;2.94;67.74
30708;BME280;17458;48.958;8.284;2023-01-19T06:06:16;99507.56;;;3.29;67.10
30708;BME280;17458;48.958;8.284;2023-01-19T06:09:01;99500.78;;;3.32;67.25
30708;BME280;17458;48.958;8.284;2023-01-19T06:11:45;99500.63;;;3.57;67.03
30708;BME280;17458;48.958;8.284;2023-01-19T06:14:29;99500.84;;;3.60;65.30
30708;BME280;17458;48.958;8.284;2023-01-19T06:17:18;99507.22;;;3.50;66.23
30708;BME280;17458;48.958;8.284;2023-01-19T06:20:03;99512.09;;;3.31;66.98
30708;BME280;17458;48.958;8.284;2023-01-19T06:22:48;99510.50;;;3.20;66.92
30708;BME280;17458;48.958;8.284;2023-01-19T06:25:32;99511.97;;;3.43;67.29
30708;BME280;17458;48.958;8.284;2023-01-19T06:28:16;99520.47;;;3.26;67.18
30708;BME280;17458;48.958;8.284;2023-01-19T06:31:01;99520.41;;;3.52;66.52
30708;BME280;17458;48.958;8.284;2023-01-19T06:33:45;99513.84;;;3.59;66.22
30708;BME280;17458;48.958;8.284;2023-01-19T06:36:30;99521.91;;;3.75;66.98
30708;BME280;17458;48.958;8.284;2023-01-19T06:39:14;99520.09;;;3.19;66.95
30708;BME280;17458;48.958;8.284;2023-01-19T06:41:58;99523.72;;;3.22;67.92
30708;BME280;17458;48.958;8.284;2023-01-19T06:44:42;99528.22;;;3.24;67.87
30708;BME280;17458;48.958;8.284;2023-01-19T06:47:30;99533.84;;;3.56;67.95
30708;BME280;17458;48.958;8.284;2023-01-19T06:50:14;99536.19;;;3.39;67.76
30708;BME280;17458;48.958;8.284;2023-01-19T06:52:58;99534.34;;;3.51;67.12
30708;BME280;17458;48.958;8.284;2023-01-19T06:55:42;99532.97;;;3.30;67.19
30708;BME280;17458;48.958;8.284;2023-01-19T06:58:28;99535.75;;;3.72;67.15
30708;BME280;17458;48.958;8.284;2023-01-19T07:01:13;99542.31;;;3.66;66.04
30708;BME280;17458;48.958;8.284;2023-01-19T07:03:57;99548.59;;;3.54;66.93
30708;BME280;17458;48.958;8.284;2023-01-19T07:06:41;99544.38;;;3.84;66.84
30708;BME280;17458;48.958;8.284;2023-01-19T07:09:25;99552.31;;;3.71;67.30
30708;BME280;17458;48.958;8.284;2023-01-19T07:12:09;99541.03;;;3.46;66.35
30708;BME280;17458;48.958;8.284;2023-01-19T07:14:53;99542.06;;;3.35;67.31
30708;BME280;17458;48.958;8.284;2023-01-19T07:17:37;99545.75;;;3.78;66.50
30708;BME280;17458;48.958;8.284;2023-01-19T07:20:21;99544.94;;;3.79;65.59
30708;BME280;17458;48.958;8.284;2023-01-19T07:23:05;99552.81;;;3.66;66.94
30708;BME280;17458;48.958;8.284;2023-01-19T07:25:49;99550.84;;;3.89;66.79
30708;BME280;17458;48.958;8.284;2023-01-19T07:28:33;99552.00;;;3.67;66.81
30708;BME280;17458;48.958;8.284;2023-01-19T07:31:18;99553.13;;;3.57;65.72
30708;BME280;17458;48.958;8.284;2023-01-19T07:34:02;99545.13;;;3.69;65.82
30708;BME280;17458;48.958;8.284;2023-01-19T07:36:47;99558.47;;;4.00;65.06
30708;BME280;17458;48.958;8.284;2023-01-19T07:39:31;99559.34;;;3.85;66.09
30708;BME280;17458;48.958;8.284;2023-01-19T07:42:15;99565.69;;;3.89;64.13
30708;BME280;17458;48.958;8.284;2023-01-19T07:44:59;99557.53;;;4.12;64.29
30708;BME280;17458;48.958;8.284;2023-01-19T07:47:44;99562.47;;;3.80;64.20
30708;BME280;17458;48.958;8.284;2023-01-19T07:50:29;99569.66;;;3.69;64.52
30708;BME280;17458;48.958;8.284;2023-01-19T07:53:13;99564.47;;;3.43;65.47
30708;BME280;17458;48.958;8.284;2023-01-19T07:55:57;99568.50;;;3.64;65.40
30708;BME280;17458;48.958;8.284;2023-01-19T07:58:42;99571.16;;;4.20;63.78
30708;BME280;17458;48.958;8.284;2023-01-19T08:01:26;99568.81;;;3.83;65.42
30708;BME280;17458;48.958;8.284;2023-01-19T08:04:10;99569.88;;;3.72;65.58
30708;BME280;17458;48.958;8.284;2023-01-19T08:06:55;99583.50;;;4.08;64.30
30708;BME280;17458;48.958;8.284;2023-01-19T08:09:39;99577.13;;;3.89;64.25
30708;BME280;17458;48.958;8.284;2023-01-19T08:12:23;99590.72;;;4.25;62.93
30708;BME280;17458;48.958;8.284;2023-01-19T08:15:08;99583.78;;;4.12;63.77
30708;BME280;17458;48.958;8.284;2023-01-19T08:17:55;99586.38;;;4.25;63.27
30708;BME280;17458;48.958;8.284;2023-01-19T08:20:39;99589.41;;;4.04;64.37
30708;BME280;17458;48.958;8.284;2023-01-19T08:23:24;99591.28;;;3.65;64.53
30708;BME280;17458;48.958;8.284;2023-01-19T08:26:26;99581.81;;;3.95;64.60
30708;BME280;17458;48.958;8.284;2023-01-19T08:29:10;99596.19;;;3.87;64.57
30708;BME280;17458;48.958;8.284;2023-01-19T08:31:54;99596.97;;;3.99;64.42
30708;BME280;17458;48.958;8.284;2023-01-19T08:34:40;99592.94;;;4.04;64.50
30708;BME280;17458;48.958;8.284;2023-01-19T08:37:24;99593.34;;;4.25;63.42
30708;BME280;17458;48.958;8.284;2023-01-19T08:40:08;99600.06;;;4.20;63.58
30708;BME280;17458;48.958;8.284;2023-01-19T08:42:56;99599.16;;;4.19;64.93
30708;BME280;17458;48.958;8.284;2023-01-19T08:45:50;99611.22;;;4.03;64.74
30708;BME280;17458;48.958;8.284;2023-01-19T08:48:34;99600.53;;;3.86;64.26
30708;BME280;17458;48.958;8.284;2023-01-19T08:51:19;99601.84;;;3.80;64.20
30708;BME280;17458;48.958;8.284;2023-01-19T08:54:04;99603.19;;;3.73;64.42
30708;BME280;17458;48.958;8.284;2023-01-19T08:56:48;99610.63;;;3.93;64.47
30708;BME280;17458;48.958;8.284;2023-01-19T08:59:32;99607.69;;;4.02;65.23
30708;BME280;17458;48.958;8.284;2023-01-19T09:02:16;99610.56;;;3.92;64.40
30708;BME280;17458;48.958;8.284;2023-01-19T09:05:00;99598.56;;;4.10;65.60
30708;BME280;17458;48.958;8.284;2023-01-19T09:07:45;99609.97;;;4.11;65.28
30708;BME280;17458;48.958;8.284;2023-01-19T09:10:30;99607.41;;;3.84;64.18
30708;BME280;17458;48.958;8.284;2023-01-19T09:13:19;99605.19;;;3.90;64.53
30708;BME280;17458;48.958;8.284;2023-01-19T09:16:03;99607.00;;;3.91;64.06
30708;BME280;17458;48.958;8.284;2023-01-19T09:18:50;99606.84;;;4.16;64.42
30708;BME280;17458;48.958;8.284;2023-01-19T09:21:34;99608.50;;;4.29;64.10
30708;BME280;17458;48.958;8.284;2023-01-19T09:24:18;99610.28;;;4.15;63.63
30708;BME280;17458;48.958;8.284;2023-01-19T09:27:02;99608.56;;;4.16;63.85
30708;BME280;17458;48.958;8.284;2023-01-19T09:29:46;99623.53;;;4.04;63.92
30708;BME280;17458;48.958;8.284;2023-01-19T09:32:35;99615.47;;;4.56;63.29
30708;BME280;17458;48.958;8.284;2023-01-19T09:35:19;99607.13;;;4.49;62.29
30708;BME280;17458;48.958;8.284;2023-01-19T09:38:05;99607.00;;;4.33;62.99
30708;BME280;17458;48.958;8.284;2023-01-19T09:40:56;99612.00;;;4.15;63.51
30708;BME280;17458;48.958;8.284;2023-01-19T09:43:50;99615.94;;;4.08;63.22
30708;BME280;17458;48.958;8.284;2023-01-19T09:46:37;99618.91;;;4.55;62.82
30708;BME280;17458;48.958;8.284;2023-01-19T09:49:40;99615.00;;;4.49;63.16
30708;BME280;17458;48.958;8.284;2023-01-19T09:52:30;99623.69;;;4.90;63.37
30708;BME280;17458;48.958;8.284;2023-01-19T09:55:22;99621.16;;;4.49;63.06
30708;BME280;17458;48.958;8.284;2023-01-19T09:58:12;99618.34;;;4.18;63.63
30708;BME280;17458;48.958;8.284;2023-01-19T10:01:07;99623.88;;;4.23;63.57
30708;BME280;17458;48.958;8.284;2023-01-19T10:10:21;99633.19;;;3.90;64.61
30708;BME280;17458;48.958;8.284;2023-01-19T10:13:27;99630.00;;;3.96;65.09
30708;BME280;17458;48.958;8.284;2023-01-19T10:16:35;99632.91;;;4.13;65.64
30708;BME280;17458;48.958;8.284;2023-01-19T10:19:31;99646.50;;;4.06;67.28
30708;BME280;17458;48.958;8.284;2023-01-19T10:22:24;99634.13;;;3.64;69.29
30708;BME280;17458;48.958;8.284;2023-01-19T10:25:17;99647.47;;;4.08;67.67
30708;BME280;17458;48.958;8.284;2023-01-19T10:28:03;99645.91;;;4.25;66.89
30708;BME280;17458;48.958;8.284;2023-01-19T10:30:47;99637.28;;;4.00;67.05
30708;BME280;17458;48.958;8.284;2023-01-19T10:33:34;99638.88;;;4.39;66.42
30708;BME280;17458;48.958;8.284;2023-01-19T10:36:33;99638.78;;;4.37;66.67
30708;BME280;17458;48.958;8.284;2023-01-19T10:39:17;99642.03;;;4.05;66.58
30708;BME280;17458;48.958;8.284;2023-01-19T10:42:02;99644.00;;;4.22;66.13
30708;BME280;17458;48.958;8.284;2023-01-19T10:44:48;99641.81;;;4.15;65.21
30708;BME280;17458;48.958;8.284;2023-01-19T10:47:34;99647.06;;;4.15;65.64
30708;BME280;17458;48.958;8.284;2023-01-19T10:50:29;99642.16;;;4.62;65.31
30708;BME280;17458;48.958;8.284;2023-01-19T10:53:21;99630.25;;;4.54;64.48
30708;BME280;17458;48.958;8.284;2023-01-19T10:56:26;99649.88;;;4.74;64.10
30708;BME280;17458;48.958;8.284;2023-01-19T10:59:32;99636.09;;;4.78;63.44
30708;BME280;17458;48.958;8.284;2023-01-19T11:05:24;99640.88;;;4.71;63.83
30708;BME280;17458;48.958;8.284;2023-01-19T11:08:22;99635.19;;;4.50;64.32
30708;BME280;17458;48.958;8.284;2023-01-19T11:11:13;99645.91;;;4.53;64.89
30708;BME280;17458;48.958;8.284;2023-01-19T11:14:06;99645.91;;;4.53;64.83
30708;BME280;17458;48.958;8.284;2023-01-19T11:17:02;99642.78;;;4.58;65.00
30708;BME280;17458;48.958;8.284;2023-01-19T11:19:58;99647.44;;;4.92;63.56
30708;BME280;17458;48.958;8.284;2023-01-19T11:22:43;99650.75;;;5.03;63.83
30708;BME280;17458;48.958;8.284;2023-01-19T11:25:31;99643.56;;;5.00;63.57
30708;BME280;17458;48.958;8.284;2023-01-19T11:28:32;99646.53;;;5.06;62.98
30708;BME280;17458;48.958;8.284;2023-01-19T11:31:20;99639.22;;;5.01;63.88
30708;BME280;17458;48.958;8.284;2023-01-19T11:34:33;99639.56;;;5.07;63.18
30708;BME280;17458;48.958;8.284;2023-01-19T11:40:04;99639.13;;;5.14;62.88
30708;BME280;17458;48.958;8.284;2023-01-19T11:42:51;99637.75;;;5.06;62.99
30708;BME280;17458;48.958;8.284;2023-01-19T11:45:35;99636.22;;;5.09;63.77
30708;BME280;17458;48.958;8.284;2023-01-19T11:48:37;99622.31;;;4.97;63.99
30708;BME280;17458;48.958;8.284;2023-01-19T11:51:24;99625.25;;;5.16;62.86
30708;BME280;17458;48.958;8.284;2023-01-19T11:54:24;99622.25;;;5.10;63.44
30708;BME280;17458;48.958;8.284;2023-01-19T11:57:14;99621.97;;;5.20;63.41
30708;BME280;17458;48.958;8.284;2023-01-19T12:00:03;99628.13;;;5.35;62.82
30708;BME280;17458;48.958;8.284;2023-01-19T12:03:04;99620.31;;;5.37;62.89
30708;BME280;17458;48.958;8.284;2023-01-19T12:05:53;99626.69;;;5.11;63.25
30708;BME280;17458;48.958;8.284;2023-01-19T12:08:46;99630.03;;;4.94;64.59
30708;BME280;17458;48.958;8.284;2023-01-19T12:11:54;99624.34;;;5.30;63.13
30708;BME280;17458;48.958;8.284;2023-01-19T12:14:46;99635.06;;;5.04;63.64
30708;BME280;17458;48.958;8.284;2023-01-19T12:17:37;99625.84;;;4.83;64.45
30708;BME280;17458;48.958;8.284;2023-01-19T12:20:28;99623.44;;;5.15;64.25
30708;BME280;17458;48.958;8.284;2023-01-19T12:26:42;99618.25;;;5.46;62.37
30708;BME280;17458;48.958;8.284;2023-01-19T12:29:33;99621.22;;;5.38;63.03
30708;BME280;17458;48.958;8.284;2023-01-19T12:32:28;99620.41;;;5.24;62.84
30708;BME280;17458;48.958;8.284;2023-01-19T12:41:31;99613.03;;;5.48;62.29
30708;BME280;17458;48.958;8.284;2023-01-19T12:44:20;99616.66;;;5.50;62.85
30708;BME280;17458;48.958;8.284;2023-01-19T12:50:04;99616.94;;;5.54;64.56
30708;BME280;17458;48.958;8.284;2023-01-19T12:52:51;99616.66;;;5.64;63.01
30708;BME280;17458;48.958;8.284;2023-01-19T12:55:39;99627.63;;;5.72;62.50
30708;BME280;17458;48.958;8.284;2023-01-19T12:58:29;99622.84;;;5.50;62.54
30708;BME280;17458;48.958;8.284;2023-01-19T13:01:15;99618.34;;;5.33;63.25
30708;BME280;17458;48.958;8.284;2023-01-19T13:04:10;99619.31;;;5.35;62.90
30708;BME280;17458;48.958;8.284;2023-01-19T13:07:10;99624.59;;;5.35;63.61
30708;BME280;17458;48.958;8.284;2023-01-19T13:09:59;99623.19;;;4.68;64.81
30708;BME280;17458;48.958;8.284;2023-01-19T13:13:16;99625.50;;;5.06;64.08
30708;BME280;17458;48.958;8.284;2023-01-19T13:21:49;99624.06;;;5.11;63.18
30708;BME280;17458;48.958;8.284;2023-01-19T13:25:03;99622.75;;;5.49;62.50
30708;BME280;17458;48.958;8.284;2023-01-19T13:27:48;99620.28;;;5.66;61.42
30708;BME280;17458;48.958;8.284;2023-01-19T13:30:33;99621.03;;;5.34;61.89
30708;BME280;17458;48.958;8.284;2023-01-19T13:33:23;99621.38;;;5.70;62.02
30708;BME280;17458;48.958;8.284;2023-01-19T13:36:28;99619.31;;;5.20;63.89
30708;BME280;17458;48.958;8.284;2023-01-19T13:39:16;99616.59;;;5.33;63.06
30708;BME280;17458;48.958;8.284;2023-01-19T13:42:05;99621.94;;;5.50;63.01
30708;BME280;17458;48.958;8.284;2023-01-19T13:44:52;99610.75;;;5.68;61.96
30708;BME280;17458;48.958;8.284;2023-01-19T13:47:41;99614.25;;;5.84;62.14
30708;BME280;17458;48.958;8.284;2023-01-19T13:50:29;99613.66;;;6.04;60.78
30708;BME280;17458;48.958;8.284;2023-01-19T13:53:18;99615.25;;;5.86;60.64
30708;BME280;17458;48.958;8.284;2023-01-19T13:56:20;99606.78;;;5.91;59.73
30708;BME280;17458;48.958;8.284;2023-01-19T13:59:11;99605.84;;;6.05;59.97
30708;BME280;17458;48.958;8.284;2023-01-19T14:02:03;99609.16;;;6.34;59.76
30708;BME280;17458;48.958;8.284;2023-01-19T14:04:55;99604.72;;;6.49;57.99
30708;BME280;17458;48.958;8.284;2023-01-19T14:07:40;99608.91;;;6.78;56.73
30708;BME280;17458;48.958;8.284;2023-01-19T14:10:24;99608.56;;;6.88;55.81
30708;BME280;17458;48.958;8.284;2023-01-19T14:16:03;99607.91;;;6.60;55.16
30708;BME280;17458;48.958;8.284;2023-01-19T14:18:58;99611.25;;;6.39;55.12
30708;BME280;17458;48.958;8.284;2023-01-19T14:21:42;99613.44;;;6.32;55.22
30708;BME280;17458;48.958;8.284;2023-01-19T14:24:27;99610.16;;;6.36;55.68
30708;BME280;17458;48.958;8.284;2023-01-19T14:27:20;99608.78;;;6.43;54.85
30708;BME280;17458;48.958;8.284;2023-01-19T14:30:20;99605.69;;;6.19;55.81
30708;BME280;17458;48.958;8.284;2023-01-19T14:33:04;99610.19;;;5.74;57.99
30708;BME280;17458;48.958;8.284;2023-01-19T14:35:53;99609.06;;;5.85;58.14
30708;BME280;17458;48.958;8.284;2023-01-19T14:38:42;99607.31;;;6.00;58.20
30708;BME280;17458;48.958;8.284;2023-01-19T14:41:43;99618.59;;;5.98;59.23
30708;BME280;17458;48.958;8.284;2023-01-19T14:44:37;99618.56;;;6.13;59.14
30708;BME280;17458;48.958;8.284;2023-01-19T14:47:55;99621.41;;;5.86;58.61
30708;BME280;17458;48.958;8.284;2023-01-19T14:50:41;99625.50;;;5.96;58.99
30708;BME280;17458;48.958;8.284;2023-01-19T14:53:26;99630.97;;;5.84;59.25
30708;BME280;17458;48.958;8.284;2023-01-19T14:56:23;99623.13;;;5.55;59.66
30708;BME280;17458;48.958;8.284;2023-01-19T14:59:08;99625.22;;;5.60;61.29
30708;BME280;17458;48.958;8.284;2023-01-19T15:01:53;99632.56;;;5.22;60.19
30708;BME280;17458;48.958;8.284;2023-01-19T15:04:37;99640.56;;;5.38;60.99
30708;BME280;17458;48.958;8.284;2023-01-19T15:07:22;99636.53;;;5.74;59.35
30708;BME280;17458;48.958;8.284;2023-01-19T15:10:17;99641.22;;;5.80;59.43
30708;BME280;17458;48.958;8.284;2023-01-19T15:13:03;99638.75;;;5.37;60.52
30708;BME280;17458;48.958;8.284;2023-01-19T15:15:47;99631.94;;;5.55;60.31
30708;BME280;17458;48.958;8.284;2023-01-19T15:18:35;99637.91;;;5.67;60.02
30708;BME280;17458;48.958;8.284;2023-01-19T15:21:20;99630.13;;;5.54;60.08
30708;BME280;17458;48.958;8.284;2023-01-19T15:24:10;99631.81;;;5.68;59.68
30708;BME280;17458;48.958;8.284;2023-01-19T15:26:54;99634.66;;;5.42;59.85
30708;BME280;17458;48.958;8.284;2023-01-19T15:29:38;99632.56;;;5.51;60.83
30708;BME280;17458;48.958;8.284;2023-01-19T15:32:25;99632.38;;;5.48;60.36
30708;BME280;17458;48.958;8.284;2023-01-19T15:35:19;99626.13;;;5.61;60.21
30708;BME280;17458;48.958;8.284;2023-01-19T15:38:03;99633.38;;;5.50;59.67
30708;BME280;17458;48.958;8.284;2023-01-19T15:40:48;99635.41;;;5.40;60.88
30708;BME280;17458;48.958;8.284;2023-01-19T15:43:32;99641.03;;;5.46;60.30
30708;BME280;17458;48.958;8.284;2023-01-19T15:46:18;99638.00;;;5.54;59.42